Time;durP1;ratioP1;P1;durP2;ratioP2;P2;SDS_P1;SDS_P2;PMS_P1;PMS_P2;Temp;Humidity;BMP_temperature;BMP_pressure;BME280_temperature;BME280_humidity;BME280_pressure;Samples;Min_cycle;Max_cycle;Signal;HPM_P1;HPM_P2
2021/05/29 00:03:02;;;;;;;4.32;3.53;;;;;;;13.95;61.42;99920.91;4281537;28;33154;-91
2021/05/29 00:05:35;;;;;;;5.40;3.97;;;;;;;14.04;61.20;99913.41;4334656;28;33742;-90
2021/05/29 00:08:16;;;;;;;4.10;3.50;;;;;;;14.23;60.82;99917.22;4227643;33;33533;-96
2021/05/29 00:11:24;;;;;;;4.45;3.45;;;;;;;14.11;60.65;99906.12;4273264;28;34239;-91
2021/05/29 00:13:56;;;;;;;11.93;4.12;;;;;;;14.08;60.80;99901.09;4224507;33;33213;-91
2021/05/29 00:16:33;;;;;;;5.12;3.95;;;;;;;14.27;61.06;99900.28;4233870;33;33693;-96
2021/05/29 00:19:07;;;;;;;4.53;3.92;;;;;;;14.23;61.11;99899.03;4237823;33;33174;-96
2021/05/29 00:22:01;;;;;;;7.65;4.12;;;;;;;14.07;61.53;99896.69;4243566;33;33516;-96
2021/05/29 00:24:37;;;;;;;4.35;3.95;;;;;;;13.95;62.60;99897.31;4228194;33;32597;-92
2021/05/29 00:27:13;;;;;;;6.72;3.97;;;;;;;14.15;61.87;99892.94;4237262;33;34633;-92
2021/05/29 00:29:47;;;;;;;5.07;4.05;;;;;;;14.22;61.45;99886.50;4238276;33;34081;-91
2021/05/29 00:42:44;;;;;;;6.18;4.28;;;;;;;14.13;61.21;99879.56;4452348;28;20168;-96
2021/05/29 00:45:48;;;;;;;9.93;3.87;;;;;;;14.18;60.57;99878.97;4252023;33;34480;-92
2021/05/29 00:48:21;;;;;;;5.20;4.50;;;;;;;14.10;61.14;99883.56;4225161;33;33061;-91
2021/05/29 00:51:45;;;;;;;4.62;4.22;;;;;;;13.93;61.38;99872.22;4248172;33;33344;-94
2021/05/29 00:55:00;;;;;;;8.10;4.00;;;;;;;14.10;61.28;99874.53;4230532;28;34476;31
2021/05/29 01:01:52;;;;;;;5.03;4.53;;;;;;;14.22;60.31;99867.47;4228889;33;34000;-90
2021/05/29 01:04:40;;;;;;;4.97;3.92;;;;;;;14.04;60.75;99881.66;4228122;33;33553;-94
2021/05/29 01:07:17;;;;;;;4.68;4.28;;;;;;;14.19;59.92;99873.31;4248754;33;33049;-91
2021/05/29 01:09:54;;;;;;;5.22;4.05;;;;;;;14.17;59.99;99875.38;4477982;28;36280;-91
2021/05/29 01:12:27;;;;;;;6.30;4.80;;;;;;;14.22;60.62;99875.62;4210051;33;34478;-90
2021/05/29 01:15:07;;;;;;;5.12;4.65;;;;;;;14.35;60.35;99871.22;4211883;34;34595;-96
2021/05/29 01:18:49;;;;;;;5.35;4.60;;;;;;;14.53;59.62;99862.44;4282595;28;20118;31
2021/05/29 01:21:48;;;;;;;5.62;4.57;;;;;;;14.37;60.32;99864.53;4337740;28;32484;-90
2021/05/29 01:24:28;;;;;;;7.07;4.20;;;;;;;14.38;60.53;99859.94;4208657;34;34048;-96
2021/05/29 01:27:31;;;;;;;4.93;4.43;;;;;;;14.49;60.18;99862.03;4189659;34;33187;-91
2021/05/29 01:30:08;;;;;;;4.75;4.28;;;;;;;14.63;59.76;99863.69;4220505;34;34653;-90
2021/05/29 01:32:49;;;;;;;4.57;4.15;;;;;;;14.58;60.13;99858.03;4220395;33;32753;-96
2021/05/29 01:35:56;;;;;;;4.43;4.03;;;;;;;14.68;59.74;99859.53;4219881;33;34905;-96
2021/05/29 01:39:02;;;;;;;5.28;4.18;;;;;;;14.30;61.03;99858.25;4195051;34;35120;-96
2021/05/29 01:41:36;;;;;;;5.57;4.43;;;;;;;14.51;60.13;99862.66;4191230;34;32851;-90
2021/05/29 01:44:16;;;;;;;6.10;4.55;;;;;;;14.34;60.65;99864.09;4203093;34;35268;-97
2021/05/29 01:47:06;;;;;;;6.32;4.32;;;;;;;14.36;60.50;99867.47;4191727;34;34164;-90
2021/05/29 01:49:40;;;;;;;6.32;4.62;;;;;;;14.49;60.00;99856.59;4204401;34;33798;-91
2021/05/29 01:52:23;;;;;;;5.55;4.28;;;;;;;14.32;60.60;99860.78;4316329;28;34094;-95
2021/05/29 01:55:38;;;;;;;5.90;5.22;;;;;;;14.40;60.24;99855.97;4009451;33;30348;-93
2021/05/29 01:58:12;;;;;;;4.80;4.30;;;;;;;14.50;60.03;99858.25;4227705;33;35159;-91
2021/05/29 02:00:46;;;;;;;5.80;4.30;;;;;;;14.57;59.84;99845.47;4238132;28;33709;-96
2021/05/29 02:03:44;;;;;;;4.87;4.40;;;;;;;14.84;58.01;99848.19;4236800;33;32692;-96
2021/05/29 02:06:19;;;;;;;5.30;4.80;;;;;;;14.35;60.07;99844.03;4236121;33;32960;-96
2021/05/29 02:09:05;;;;;;;5.47;4.57;;;;;;;14.53;59.69;99846.94;4217051;33;34277;-96
2021/05/29 02:11:59;;;;;;;4.93;4.43;;;;;;;14.74;58.71;99839.63;4249152;33;32251;-96
2021/05/29 02:14:32;;;;;;;4.80;4.40;;;;;;;14.77;58.90;99847.38;4233337;33;34137;-91
2021/05/29 02:17:06;;;;;;;10.50;4.05;;;;;;;14.67;59.65;99842.38;4246082;33;34183;-92
2021/05/29 02:19:40;;;;;;;6.15;4.62;;;;;;;14.80;58.72;99836.06;4235359;33;33911;-92
2021/05/29 02:22:17;;;;;;;5.65;4.22;;;;;;;14.75;59.11;99839.41;4234473;33;35350;-92
2021/05/29 02:24:50;;;;;;;5.53;4.60;;;;;;;14.81;57.80;99833.13;4242841;33;35069;-96
2021/05/29 02:27:43;;;;;;;4.37;3.97;;;;;;;14.56;59.11;99829.38;4204639;33;33795;-96
2021/05/29 02:30:37;;;;;;;5.37;4.53;;;;;;;14.68;59.14;99835.88;4249080;33;33855;-96
2021/05/29 02:33:24;;;;;;;5.55;4.28;;;;;;;14.35;60.18;99835.88;4236732;33;32273;-90
2021/05/29 02:35:59;;;;;;;8.93;4.32;;;;;;;14.51;59.57;99843.63;4250272;33;33929;-91
2021/05/29 02:38:34;;;;;;;5.47;4.70;;;;;;;14.77;58.92;99841.91;4250531;33;33367;-96
2021/05/29 02:41:10;;;;;;;6.43;4.07;;;;;;;14.52;59.68;99839.84;4238640;33;33393;-95
2021/05/29 02:43:59;;;;;;;5.10;4.20;;;;;;;14.30;60.21;99837.34;4224578;33;33291;-96
2021/05/29 02:46:33;;;;;;;5.70;4.60;;;;;;;14.36;60.18;99835.66;4223538;33;33416;-96
2021/05/29 02:49:23;;;;;;;5.43;4.35;;;;;;;14.59;59.95;99835.22;4234940;33;32660;-96
2021/05/29 02:51:56;;;;;;;7.35;4.57;;;;;;;14.70;59.67;99835.66;4244472;33;35068;-89
2021/05/29 02:54:30;;;;;;;7.00;4.97;;;;;;;14.68;59.74;99826.88;4217461;33;33499;-96
2021/05/29 02:57:06;;;;;;;5.03;4.15;;;;;;;14.38;60.61;99832.75;4230111;33;32592;-90
2021/05/29 02:59:43;;;;;;;4.90;4.25;;;;;;;14.45;60.52;99822.69;4224462;33;34110;-89
2021/05/29 03:02:16;;;;;;;5.53;4.55;;;;;;;14.57;60.12;99831.88;4220676;33;34173;-96
2021/05/29 03:05:06;;;;;;;5.50;4.78;;;;;;;14.45;60.58;99839.03;4214249;33;34904;-90
2021/05/29 03:07:40;;;;;;;5.57;4.90;;;;;;;14.41;60.42;99832.31;4246455;33;34370;-95
2021/05/29 03:10:30;;;;;;;6.57;4.78;;;;;;;14.20;60.59;99839.63;4239428;33;33913;-90
2021/05/29 03:13:07;;;;;;;9.63;4.35;;;;;;;14.21;61.29;99843.22;4255949;33;34634;-89
2021/05/29 03:15:43;;;;;;;5.78;4.00;;;;;;;14.51;60.54;99840.87;4260646;33;34360;-90
2021/05/29 03:18:17;;;;;;;4.53;4.12;;;;;;;14.47;60.05;99836.91;4260954;33;33509;-91
2021/05/29 03:20:51;;;;;;;5.62;4.28;;;;;;;14.61;59.51;99838.63;4260337;33;34354;-96
2021/05/29 03:23:25;;;;;;;7.25;4.55;;;;;;;14.19;60.42;99832.56;4240797;33;523463;-90
2021/05/29 03:25:59;;;;;;;8.02;4.87;;;;;;;14.05;61.20;99828.13;4261873;33;33574;-96
2021/05/29 03:28:47;;;;;;;5.55;4.70;;;;;;;14.13;60.84;99836.94;4247541;33;33807;-90
2021/05/29 03:31:30;;;;;;;7.45;4.60;;;;;;;13.97;61.26;99839.19;4237009;33;34160;-90
2021/05/29 03:34:03;;;;;;;5.45;4.87;;;;;;;14.02;61.45;99836.72;4248990;33;33820;-90
2021/05/29 03:36:43;;;;;;;6.90;4.82;;;;;;;13.73;62.30;99836.88;4248846;33;32769;-96
2021/05/29 03:39:17;;;;;;;9.65;5.25;;;;;;;14.07;61.72;99839.63;4249170;33;34096;-90
2021/05/29 03:41:58;;;;;;;12.60;4.82;;;;;;;14.16;61.67;99835.69;4250006;33;33150;-96
2021/05/29 03:44:32;;;;;;;;;;;;;;;14.18;61.12;99847.19;4248689;33;34342;-96
2021/05/29 03:47:36;;;;;;;5.03;4.00;;;;;;;14.34;61.12;99845.94;4260968;33;35599;-90
2021/05/29 03:50:12;;;;;;;5.75;4.25;;;;;;;14.34;61.63;99842.34;4237185;33;36049;-90
2021/05/29 03:52:46;;;;;;;4.62;4.07;;;;;;;14.35;61.34;99846.75;4246472;33;33140;-96
2021/05/29 03:55:20;;;;;;;4.90;4.35;;;;;;;14.64;60.64;99840.91;4238280;33;34138;-96
2021/05/29 03:58:11;;;;;;;7.07;4.78;;;;;;;14.45;61.20;99848.00;4223389;33;33914;-90
2021/05/29 04:00:45;;;;;;;4.80;4.30;;;;;;;14.52;61.00;99848.00;4224176;33;35065;-93
2021/05/29 04:03:31;;;;;;;8.50;4.50;;;;;;;14.57;60.19;99844.66;4220866;33;34371;-90
2021/05/29 04:06:04;;;;;;;7.40;4.70;;;;;;;14.57;60.97;99850.91;4231711;33;35400;-90
2021/05/29 04:08:38;;;;;;;8.48;4.60;;;;;;;15.09;59.14;99853.78;4232310;33;33741;-90
2021/05/29 04:11:14;;;;;;;5.10;4.10;;;;;;;14.82;59.55;99850.31;4231889;33;34155;-91
2021/05/29 04:13:48;;;;;;;5.45;4.60;;;;;;;14.94;60.26;99851.31;4221641;33;33663;-91
2021/05/29 04:16:21;;;;;;;6.40;4.20;;;;;;;14.91;59.91;99859.91;4242838;33;34545;-96
2021/05/29 04:19:27;;;;;;;6.00;4.45;;;;;;;15.08;58.93;99859.44;4200650;33;35472;-96
2021/05/29 04:22:02;;;;;;;5.82;4.50;;;;;;;14.78;59.32;99859.94;4235437;33;34046;-96
2021/05/29 04:24:49;;;;;;;5.30;4.62;;;;;;;14.45;60.30;99853.44;4224301;33;32847;-96
2021/05/29 04:27:41;;;;;;;4.72;4.18;;;;;;;14.60;61.18;99857.84;4237609;33;33145;-90
2021/05/29 04:30:18;;;;;;;8.95;4.03;;;;;;;14.71;60.25;99864.53;4224318;33;33030;-90
2021/05/29 04:32:51;;;;;;;5.03;4.25;;;;;;;14.81;59.83;99860.31;4234353;33;34334;-96
2021/05/29 04:35:43;;;;;;;4.37;3.83;;;;;;;14.84;59.83;99864.50;4228743;33;32676;-90
2021/05/29 04:38:16;;;;;;;4.62;4.03;;;;;;;14.93;60.20;99851.53;4220552;33;34366;-91
2021/05/29 04:40:52;;;;;;;4.70;4.25;;;;;;;15.05;59.73;99854.44;4214882;33;34690;-96
2021/05/29 04:43:25;;;;;;;4.22;3.72;;;;;;;14.81;59.69;99859.50;4233083;33;34406;-96
2021/05/29 04:46:23;;;;;;;5.18;3.92;;;;;;;15.15;59.50;99861.09;4231023;33;34856;-96
2021/05/29 04:48:57;;;;;;;4.57;3.75;;;;;;;15.19;59.89;99858.75;4204322;34;32548;-96
2021/05/29 04:51:46;;;;;;;7.22;3.75;;;;;;;15.34;59.20;99861.22;4212033;33;34491;-96
2021/05/29 04:54:20;;;;;;;5.85;4.30;;;;;;;15.36;58.40;99865.41;4219859;33;32525;-92
2021/05/29 04:56:53;;;;;;;5.07;3.92;;;;;;;15.43;57.70;99853.63;4227100;33;34385;-90
2021/05/29 04:59:26;;;;;;;3.90;3.35;;;;;;;15.23;58.27;99851.00;4219895;33;33585;-92
2021/05/29 05:02:00;;;;;;;4.43;3.92;;;;;;;15.37;58.78;99849.88;4230256;33;33260;-92
2021/05/29 05:04:33;;;;;;;5.37;3.80;;;;;;;15.40;58.23;99856.78;4231878;33;33923;-95
2021/05/29 05:07:22;;;;;;;4.95;4.45;;;;;;;15.43;57.99;99857.19;4213320;33;33653;-96
2021/05/29 05:10:04;;;;;;;5.90;4.65;;;;;;;15.11;59.15;99859.84;4206294;33;34403;-96
2021/05/29 05:13:29;;;;;;;5.35;4.15;;;;;;;15.36;59.89;99865.41;2465649;28;35002;-95
2021/05/29 05:16:35;;;;;;;5.80;4.18;;;;;;;15.75;59.57;99853.69;4223193;33;31726;-96
2021/05/29 05:19:30;;;;;;;4.93;4.07;;;;;;;15.85;57.51;99860.38;4211768;34;35086;-96
2021/05/29 05:22:54;;;;;;;6.37;4.22;;;;;;;15.61;59.89;99852.91;4196056;34;34390;-95
2021/05/29 05:25:57;;;;;;;4.45;4.05;;;;;;;15.88;59.50;99861.81;4251425;28;32921;-88
2021/05/29 05:28:30;;;;;;;5.25;4.20;;;;;;;16.17;57.73;99864.97;4223055;33;34797;-90
2021/05/29 05:31:05;;;;;;;6.87;4.15;;;;;;;16.08;57.55;99858.09;4212023;34;34878;-96
2021/05/29 05:33:42;;;;;;;4.95;3.80;;;;;;;16.08;58.35;99863.56;4225455;33;34493;-95
2021/05/29 05:37:06;;;;;;;5.30;3.92;;;;;;;16.31;56.45;99862.97;4171299;34;34656;-89
2021/05/29 05:39:39;;;;;;;6.53;3.55;;;;;;;16.55;56.31;99864.84;4226653;33;34736;-90
2021/05/29 05:42:12;;;;;;;6.62;3.72;;;;;;;16.54;57.20;99865.06;4224596;33;32056;-96
2021/05/29 05:44:46;;;;;;;4.65;3.70;;;;;;;16.43;58.14;99861.19;4227142;33;34136;-96
2021/05/29 05:47:32;;;;;;;3.92;3.53;;;;;;;16.98;56.50;99865.13;4240142;33;34101;-90
2021/05/29 05:50:06;;;;;;;8.27;4.00;;;;;;;17.07;56.31;99861.84;4222690;33;34541;-96
2021/05/29 05:52:54;;;;;;;5.53;3.20;;;;;;;17.07;55.04;99864.56;4222313;33;34349;-96
2021/05/29 05:55:27;;;;;;;5.55;3.72;;;;;;;17.33;55.46;99859.88;4232898;33;34350;-90
2021/05/29 05:58:01;;;;;;;9.00;3.60;;;;;;;16.96;55.51;99865.34;4245921;33;33545;-96
2021/05/29 06:00:35;;;;;;;4.53;3.35;;;;;;;16.95;55.68;99863.66;4233357;33;32999;-89
2021/05/29 06:03:09;;;;;;;5.47;3.22;;;;;;;17.50;55.35;99861.97;4242222;33;33750;-96
2021/05/29 06:06:18;;;;;;;4.03;3.62;;;;;;;17.38;54.70;99868.22;4172809;33;34803;-96
2021/05/29 06:09:16;;;;;;;6.03;3.58;;;;;;;17.81;53.83;99852.72;4260324;33;34704;-96
2021/05/29 06:11:53;;;;;;;3.65;3.20;;;;;;;17.89;53.46;99851.53;4255873;33;34817;-90
2021/05/29 06:20:28;;;;;;;5.60;3.22;;;;;;;17.51;54.67;99866.38;4221314;33;32568;-94
2021/05/29 06:23:02;;;;;;;6.62;3.75;;;;;;;17.38;54.75;99862.75;4236367;33;36803;-96
2021/05/29 06:25:51;;;;;;;;;;;;;;;17.48;54.28;99867.66;4220540;33;34576;-96
2021/05/29 06:28:25;;;;;;;4.07;3.50;;;;;;;17.44;54.94;99867.31;4233079;33;34315;-96
2021/05/29 06:31:23;;;;;;;3.87;3.37;;;;;;;17.86;55.02;99873.88;4234966;33;34325;-95
2021/05/29 06:33:59;;;;;;;4.78;3.40;;;;;;;17.14;53.61;99874.59;4229589;33;33604;-90
2021/05/29 06:36:33;;;;;;;3.50;2.97;;;;;;;17.17;55.05;99882.31;4227767;33;34098;-90
2021/05/29 06:39:07;;;;;;;3.78;2.92;;;;;;;17.39;53.81;99880.78;4219994;33;34150;-96
2021/05/29 06:42:00;;;;;;;5.30;3.60;;;;;;;17.24;54.34;99888.56;4226506;33;34365;-90
2021/05/29 06:44:34;;;;;;;5.62;2.95;;;;;;;17.74;51.58;99876.56;4223427;33;33540;-96
2021/05/29 06:47:12;;;;;;;4.85;3.87;;;;;;;17.76;52.66;99886.22;4210187;34;32633;-95
2021/05/29 06:49:57;;;;;;;3.58;3.15;;;;;;;17.14;55.22;99883.62;4223821;33;34323;-90
2021/05/29 06:52:37;;;;;;;4.68;3.42;;;;;;;17.45;54.62;99890.84;4222090;33;33736;-96
2021/05/29 06:59:13;;;;;;;5.30;3.33;;;;;;;17.55;54.70;99884.81;4212323;33;32951;-90
2021/05/29 07:01:25;;;;;;;5.12;3.58;;;;;;;17.72;53.03;99885.00;4222591;33;32198;-95
2021/05/29 07:04:10;;;;;;;7.95;3.40;;;;;;;17.39;54.69;99880.78;4262414;33;33567;-90
2021/05/29 07:06:44;;;;;;;4.78;3.40;;;;;;;17.63;53.21;99886.37;4235071;33;34125;-90
2021/05/29 07:09:20;;;;;;;5.93;3.75;;;;;;;17.22;53.29;99880.59;4228734;33;34296;-96
2021/05/29 07:11:54;;;;;;;4.25;3.17;;;;;;;17.38;54.28;99878.28;4241365;33;33620;-90
2021/05/29 07:14:28;;;;;;;5.82;3.30;;;;;;;17.44;53.15;99878.22;4253737;33;33808;-91
2021/05/29 07:17:04;;;;;;;5.07;3.37;;;;;;;17.65;55.40;99874.16;4233851;33;33478;-94
2021/05/29 07:19:53;;;;;;;3.47;3.17;;;;;;;17.82;53.34;99879.81;4234110;33;35045;-90
2021/05/29 07:22:27;;;;;;;3.80;3.40;;;;;;;18.24;53.63;99880.94;4246219;33;34808;-96
2021/05/29 07:25:11;;;;;;;3.75;2.80;;;;;;;18.21;52.30;99881.41;4248741;33;34419;-96
2021/05/29 07:28:16;;;;;;;3.92;3.60;;;;;;;18.40;50.54;99880.25;4215763;33;35197;-96
2021/05/29 07:30:50;;;;;;;4.65;3.22;;;;;;;18.66;53.11;99878.94;4237175;33;32901;-90
2021/05/29 07:33:24;;;;;;;4.80;3.22;;;;;;;18.80;49.57;99885.03;4233433;33;33972;-95
2021/05/29 07:36:00;;;;;;;7.18;3.37;;;;;;;19.07;50.99;99887.28;4233114;33;33312;-96
2021/05/29 07:38:34;;;;;;;6.15;3.03;;;;;;;19.32;51.47;99886.19;4233622;33;33891;-94
2021/05/29 07:41:07;;;;;;;7.53;3.30;;;;;;;19.69;52.17;99874.88;4233980;33;33138;-91
2021/05/29 07:43:45;;;;;;;8.05;3.80;;;;;;;19.92;49.30;99885.78;4234079;33;33312;-96
2021/05/29 07:46:42;;;;;;;14.20;4.05;;;;;;;19.86;47.59;99880.44;4237407;33;20094;-96
2021/05/29 07:49:27;;;;;;;8.85;3.45;;;;;;;19.79;49.20;99880.59;4228300;33;34028;-93
2021/05/29 07:52:07;;;;;;;5.25;3.47;;;;;;;20.31;48.62;99871.34;4229316;33;34129;-96
2021/05/29 07:57:45;;;;;;;4.40;3.35;;;;;;;20.82;45.78;99860.38;4251584;33;33242;-96
2021/05/29 08:00:26;;;;;;;7.12;3.80;;;;;;;20.71;49.10;99861.34;4234102;33;34341;-96
2021/05/29 08:03:29;;;;;;;5.32;3.40;;;;;;;20.71;47.49;99859.41;4223031;33;34240;-96
2021/05/29 08:06:27;;;;;;;4.87;3.33;;;;;;;20.97;48.65;99857.03;4220263;33;32696;-92
2021/05/29 08:09:14;;;;;;;11.77;3.50;;;;;;;21.43;45.97;99871.37;4215473;34;33396;-92
2021/05/29 08:11:47;;;;;;;3.62;2.83;;;;;;;21.17;45.16;99872.97;4227767;33;33330;-92
2021/05/29 08:14:23;;;;;;;5.43;3.00;;;;;;;21.31;44.86;99868.75;4226605;33;34259;-91
2021/05/29 08:16:56;;;;;;;3.12;2.67;;;;;;;21.30;44.73;99871.75;4214970;34;33865;-91
2021/05/29 08:19:34;;;;;;;3.42;2.30;;;;;;;21.32;42.82;99875.91;4229850;33;33793;-96
2021/05/29 08:22:24;;;;;;;2.90;1.95;;;;;;;20.93;43.62;99873.19;4214113;34;32429;-91
2021/05/29 08:25:02;;;;;;;2.75;1.92;;;;;;;20.57;44.51;99864.37;4216638;34;33962;-91
2021/05/29 08:27:34;;;;;;;3.05;2.08;;;;;;;20.61;44.75;99859.22;4227794;33;34879;-95
2021/05/29 08:30:13;;;;;;;2.15;1.90;;;;;;;20.63;44.52;99860.62;4217167;34;33750;-94
2021/05/29 08:32:58;;;;;;;2.70;1.35;;;;;;;20.49;44.95;99862.03;4214434;34;34244;-96
2021/05/29 08:35:32;;;;;;;6.97;2.20;;;;;;;20.77;43.74;99863.06;4216325;33;32632;-92
2021/05/29 08:38:14;;;;;;;2.75;1.92;;;;;;;20.91;43.84;99869.88;4218141;34;34286;-96
2021/05/29 08:41:20;;;;;;;2.20;1.65;;;;;;;21.05;43.31;99866.75;4216120;34;32668;-91
2021/05/29 08:47:16;;;;;;;3.54;2.00;;;;;;;21.65;43.76;99863.13;4269101;28;32240;31
2021/05/29 08:49:50;;;;;;;2.50;1.65;;;;;;;21.80;40.98;99869.91;4318861;28;33499;-96
2021/05/29 08:53:02;;;;;;;2.87;1.55;;;;;;;21.41;42.15;99872.72;4446913;28;20157;-89
2021/05/29 08:55:38;;;;;;;3.05;1.40;;;;;;;21.96;42.39;99862.63;4224581;28;32020;-89
2021/05/29 08:58:14;;;;;;;4.53;1.30;;;;;;;21.65;40.69;99863.13;4260015;28;34252;-90
2021/05/29 09:01:33;;;;;;;2.95;1.65;;;;;;;22.18;40.18;99849.63;4372968;28;34715;-88
2021/05/29 09:04:08;;;;;;;5.00;1.55;;;;;;;22.45;38.65;99851.53;4222785;33;33756;-93
2021/05/29 09:07:26;;;;;;;2.28;1.30;;;;;;;21.97;40.93;99848.59;4208817;34;34206;-89
2021/05/29 09:10:20;;;;;;;2.20;1.60;;;;;;;22.27;42.36;99847.22;4206370;34;32419;-95
2021/05/29 09:13:12;;;;;;;;;;;;;;;22.03;42.17;99846.72;4216124;34;34634;-88
2021/05/29 09:15:54;;;;;;;1.90;1.35;;;;;;;21.66;41.05;99847.47;4224928;33;33648;-96
2021/05/29 09:18:45;;;;;;;1.83;1.17;;;;;;;22.32;41.29;99844.56;4213328;34;33632;-93
2021/05/29 09:21:34;;;;;;;5.00;1.45;;;;;;;22.09;41.50;99840.19;4224095;33;33876;-96
2021/05/29 09:25:08;;;;;;;1.67;1.37;;;;;;;22.45;38.21;99842.44;3738186;33;20161;-90
2021/05/29 09:28:04;;;;;;;1.92;1.60;;;;;;;21.96;42.47;99857.13;4225215;33;32975;-96
2021/05/29 09:30:45;;;;;;;1.87;1.40;;;;;;;22.02;39.69;99851.41;4232836;33;34529;-96
2021/05/29 09:33:30;;;;;;;2.85;1.40;;;;;;;22.06;40.01;99856.41;4223919;33;34419;-92
2021/05/29 09:36:10;;;;;;;4.15;1.60;;;;;;;21.03;40.75;99877.16;4244730;33;34608;-88
2021/05/29 09:38:54;;;;;;;2.00;1.50;;;;;;;20.32;44.40;99858.50;4233387;33;34219;-93
2021/05/29 09:41:30;;;;;;;3.08;1.95;;;;;;;21.09;44.71;99866.00;4235004;33;33800;-96
2021/05/29 09:44:05;;;;;;;1.30;1.20;;;;;;;21.40;42.09;99868.31;4233435;33;34932;-89
2021/05/29 09:46:53;;;;;;;2.08;1.70;;;;;;;21.77;40.46;99859.41;4246752;33;34328;-88
2021/05/29 09:49:56;;;;;;;3.03;1.87;;;;;;;21.37;41.33;99861.41;4247109;33;33181;-96
2021/05/29 09:53:47;;;;;;;4.00;1.80;;;;;;;21.28;41.56;99861.00;4138637;28;33843;-96
2021/05/29 09:57:02;;;;;;;153.38;63.38;;;;;;;20.48;42.90;99860.41;4137917;34;33461;-92
2021/05/29 09:59:35;;;;;;;46.40;16.67;;;;;;;21.18;46.21;99852.62;4163518;34;33468;-89
2021/05/29 10:02:23;;;;;;;93.13;37.50;;;;;;;21.55;40.98;99845.69;4138384;34;32760;-96
2021/05/29 10:05:48;;;;;;;10.80;5.25;;;;;;;22.02;39.87;99856.91;4150321;34;33496;-96
2021/05/29 10:08:51;;;;;;;5.78;3.08;;;;;;;21.52;41.04;99849.78;4148922;34;33714;-92
2021/05/29 10:11:31;;;;;;;4.65;2.12;;;;;;;21.65;40.69;99846.63;4136273;34;33915;-92
2021/05/29 10:14:10;;;;;;;1.33;1.12;;;;;;;22.09;38.77;99831.09;4136572;34;33746;-93
2021/05/29 10:16:48;;;;;;;1.98;1.30;;;;;;;22.56;40.13;99836.75;4136021;34;33784;-92
2021/05/29 10:19:30;;;;;;;2.22;1.40;;;;;;;22.82;39.74;99831.41;4135924;34;34777;-92
2021/05/29 10:22:11;;;;;;;3.33;1.85;;;;;;;23.14;34.00;99826.91;4132770;34;33862;-90
2021/05/29 10:24:50;;;;;;;2.28;1.05;;;;;;;23.21;37.14;99831.06;4126208;34;33007;-92
2021/05/29 10:27:31;;;;;;;4.30;2.00;;;;;;;23.67;33.32;99835.06;4123584;34;33668;-94
2021/05/29 10:30:08;;;;;;;3.78;2.37;;;;;;;23.93;36.91;99836.81;4158996;34;33917;-91
2021/05/29 10:33:10;;;;;;;4.03;2.25;;;;;;;24.61;34.42;99845.97;4182714;34;33956;-92
2021/05/29 10:35:44;;;;;;;2.00;1.62;;;;;;;24.98;33.00;99847.53;4186445;34;32298;-90
2021/05/29 10:38:26;;;;;;;4.60;1.40;;;;;;;24.03;33.16;99841.53;4197463;34;33605;-92
2021/05/29 10:41:02;;;;;;;2.87;1.83;;;;;;;23.35;36.58;99853.44;4190602;34;32739;-91
2021/05/29 10:43:40;;;;;;;1.20;1.10;;;;;;;22.97;37.24;99844.44;4191722;34;33374;-91
2021/05/29 10:46:20;;;;;;;1.62;1.23;;;;;;;23.26;34.82;99849.56;4180278;34;32805;-93
2021/05/29 10:48:54;;;;;;;3.97;1.10;;;;;;;23.33;36.30;99852.09;4190002;34;34443;-93
2021/05/29 10:51:37;;;;;;;3.28;1.20;;;;;;;23.95;38.50;99839.31;4191144;34;33415;-93
2021/05/29 10:54:19;;;;;;;5.10;1.20;;;;;;;24.07;36.73;99837.12;4195176;34;33333;-90
2021/05/29 10:56:57;;;;;;;2.22;1.12;;;;;;;24.11;35.45;99843.72;4195702;34;34451;-91
2021/05/29 10:59:38;;;;;;;2.15;1.23;;;;;;;24.38;36.07;99837.12;4208832;34;33651;-91
2021/05/29 11:02:20;;;;;;;1.65;1.10;;;;;;;24.25;34.71;99846.78;4202806;34;33664;-90
2021/05/29 11:05:36;;;;;;;0.85;0.80;;;;;;;22.91;34.67;99840.00;4190962;34;34080;-96
2021/05/29 11:08:48;;;;;;;1.33;0.80;;;;;;;23.66;34.53;99842.53;4186351;34;33119;-91
2021/05/29 11:14:55;;;;;;;1.25;0.90;;;;;;;24.27;33.61;99829.94;4192806;34;35417;-87
2021/05/29 11:25:23;;;;;;;1.73;0.60;;;;;;;23.62;32.78;99827.63;4087243;28;20493;-96
2021/05/29 11:28:29;;;;;;;1.23;0.85;;;;;;;23.93;31.76;99827.72;4306193;28;20122;-94
2021/05/29 11:31:44;;;;;;;1.10;0.50;;;;;;;24.55;35.31;99823.03;4120651;33;34933;-88
2021/05/29 11:40:48;;;;;;;0.68;0.68;;;;;;;25.43;30.73;99820.84;4215779;33;34335;-89
2021/05/29 11:43:35;;;;;;;0.63;0.43;;;;;;;24.68;30.44;99827.16;4607968;28;34886;-95
2021/05/29 11:46:30;;;;;;;1.23;0.50;;;;;;;24.01;34.47;99826.34;4211386;34;35730;-87
2021/05/29 11:49:14;;;;;;;0.30;0.30;;;;;;;25.23;31.61;99818.16;4288892;28;34279;-90
2021/05/29 11:59:36;;;;;;;3.20;0.45;;;;;;;25.13;29.71;99806.00;4557368;28;19965;-95
2021/05/29 12:03:20;;;;;;;0.62;0.45;;;;;;;25.04;28.77;99802.19;4398000;28;20109;-91
2021/05/29 12:06:36;;;;;;;0.40;0.30;;;;;;;26.03;28.41;99806.94;4295340;28;37113;31
2021/05/29 12:09:45;;;;;;;1.60;0.70;;;;;;;25.36;28.34;99795.47;4367507;28;36936;31
2021/05/29 12:12:23;;;;;;;1.95;0.47;;;;;;;25.42;31.10;99791.56;4266721;28;32853;-93
2021/05/29 12:14:57;;;;;;;1.62;0.43;;;;;;;26.01;29.90;99800.03;4336191;28;33615;-93
2021/05/29 12:17:42;;;;;;;2.60;0.60;;;;;;;26.66;27.27;99793.34;4248939;33;34115;-96
2021/05/29 12:21:02;;;;;;;1.48;0.52;;;;;;;26.56;28.11;99781.25;4267045;28;35528;-96
2021/05/29 12:23:55;;;;;;;0.50;0.40;;;;;;;27.36;26.76;99798.38;4231633;28;33260;-95
2021/05/29 12:26:42;;;;;;;2.55;0.55;;;;;;;27.23;26.48;99788.81;4246803;28;32534;31
2021/05/29 12:29:24;;;;;;;2.00;0.70;;;;;;;26.88;26.41;99792.84;4217400;33;34328;-90
2021/05/29 12:32:56;;;;;;;3.10;0.80;;;;;;;25.65;29.33;99803.03;4208195;34;34832;-88
2021/05/29 12:39:08;;;;;;;0.95;0.50;;;;;;;25.95;27.33;99790.91;4346163;28;20173;-92
2021/05/29 12:45:28;;;;;;;1.08;0.80;;;;;;;24.97;28.78;99793.38;4238247;28;33258;-90
2021/05/29 12:48:06;;;;;;;0.98;0.88;;;;;;;25.92;29.07;99787.91;4193018;28;32315;-93
2021/05/29 12:51:00;;;;;;;2.75;0.77;;;;;;;26.70;27.05;99786.13;4290580;28;34036;-93
2021/05/29 12:53:52;;;;;;;3.20;0.77;;;;;;;27.12;28.55;99771.47;4255716;28;33324;-88
2021/05/29 12:56:30;;;;;;;1.12;0.60;;;;;;;27.64;25.73;99770.81;4350555;28;33606;-94
2021/05/29 13:13:19;;;;;;;1.17;0.77;;;;;;;24.97;27.67;99769.34;4340624;28;34142;-94
2021/05/29 13:16:02;;;;;;;2.05;0.62;;;;;;;25.66;28.37;99774.22;4236582;28;31014;-92
2021/05/29 13:18:37;;;;;;;1.45;0.60;;;;;;;26.47;25.18;99755.31;4424954;28;33368;-88
2021/05/29 13:21:55;;;;;;;2.50;0.90;;;;;;;27.06;24.47;99749.66;4286242;28;34627;-88
2021/05/29 13:25:04;;;;;;;1.95;0.70;;;;;;;26.67;24.61;99759.00;4287334;28;34216;-93
2021/05/29 13:27:45;;;;;;;4.32;1.17;;;;;;;26.74;25.51;99763.06;4278041;28;33463;-87
2021/05/29 13:30:22;;;;;;;0.77;0.77;;;;;;;27.09;23.32;99752.66;4239804;28;34696;-87
2021/05/29 13:33:17;;;;;;;1.02;0.80;;;;;;;26.99;24.06;99755.56;4259074;28;33207;-89
2021/05/29 13:35:56;;;;;;;2.75;0.73;;;;;;;27.08;23.94;99764.03;4283568;28;31908;-87
2021/05/29 13:45:24;;;;;;;3.72;0.82;;;;;;;27.23;24.61;99744.44;4290432;28;20592;-88
2021/05/29 13:47:59;;;;;;;0.75;0.65;;;;;;;27.03;25.40;99747.47;4220306;33;33066;-88
2021/05/29 13:50:32;;;;;;;1.62;1.10;;;;;;;27.38;23.35;99748.13;4330906;28;35625;-88
2021/05/29 13:53:16;;;;;;;1.52;0.70;;;;;;;27.89;22.28;99743.75;4211664;33;33617;-96
2021/05/29 13:56:38;;;;;;;1.70;0.60;;;;;;;28.03;24.88;99754.94;4247241;28;33786;-90
2021/05/29 13:59:42;;;;;;;3.50;0.98;;;;;;;27.97;22.25;99749.47;4306438;28;20118;-92
2021/05/29 14:02:15;;;;;;;4.18;1.12;;;;;;;26.78;25.25;99741.13;4220622;28;34691;-88
2021/05/29 14:04:53;;;;;;;0.98;0.70;;;;;;;26.51;23.32;99748.06;4296475;28;33431;-90
2021/05/29 14:14:13;;;;;;;4.95;1.12;;;;;;;25.78;28.23;99760.88;4232029;28;32955;-93
2021/05/29 14:20:32;;;;;;;1.50;1.12;;;;;;;25.93;26.03;99753.56;4178666;33;37600;-92
2021/05/29 14:23:49;;;;;;;2.55;1.40;;;;;;;25.88;26.40;99782.94;4350293;28;20122;-95
2021/05/29 14:26:28;;;;;;;2.67;1.27;;;;;;;26.03;28.48;99762.66;4390800;28;34614;-91
2021/05/29 14:29:07;;;;;;;1.70;1.30;;;;;;;26.57;28.01;99766.28;4379868;28;32654;-91
2021/05/29 14:35:44;;;;;;;3.47;1.33;;;;;;;27.23;27.35;99766.63;4425721;28;20077;31
2021/05/29 14:38:33;;;;;;;2.78;1.25;;;;;;;26.93;25.93;99765.91;4188790;34;34735;-95